Elista, Russia
Current Conditions -  °F | °C
As of 8:00 PM on Wednesday 28 Jan 2015 (Local Time) from URWI Reporting Station
Overcast Overcast  
Wind Chill: 16°   Ceiling: 800
Heat Index: 27°   Visibility: 6mi
Dew Point: 27°   Wind: 11mph
Humidity: 100%   Direction: 110°ESE
Pressure: 30"   Gusts: NA
Location:  46.32°N, 44.21°E
Report Text: URWI 281700Z 11005MPS 9999 OVC008 M03/M03 Q1016 NOSIG
Loading
Personal Weather Stations






























Interactive Weather Map New forecast layout! Learn more

10-Day Weather Forecast

Advertisements
Track Severe Weather on mobile